Terminal Aerodrome Forecast
Issued by NWS

Home | Current Version | Previous Version | Text Only | Print | Product List | Glossary On
Versions: 1 2 3 4 5 6 7 8 9 10 11 12 13 14 15 16 17 18 19 20 21 22 23 24 25 26 27 28 29 30
000
FTUS43 KDLH 191400 AAB
TAFHIB
TAF AMD
KHIB 191416Z 1914/2012 34006KT P6SM VCSH SCT006 OVC020
     FM192000 36005KT P6SM VCSH SCT025 BKN035
     FM200500 00000KT 5SM BR SCT004 OVC015
     FM200800 00000KT 3/4SM BR OVC004=

USA.gov is the U.S. government's official web portal to all federal, state and local government web resources and services.